Terminal Aerodrome Forecast
Issued by NWS Bismarck, ND

Home | Current Version | Previous Version | Graphics & Text | Print | Product List | Glossary On
Versions: 1 2 3 4 5 6 7 8 9 10 11 12 13 14 15 16 17 18 19 20 21 22 23 24 25 26 27 28 29 30
696
FTUS43 KBIS 191132
TAFBIS
TAF
KBIS 191132Z 1912/2012 00000KT P6SM FEW200
      TEMPO 1913/1917 4SM BR FEW120
     FM200000 VRB03KT 4SM BR SCT150
     FM200400 VRB03KT 4SM BR BKN110
     FM200600 VRB03KT 3SM BR SCT100
     FM201100 VRB03KT 1 1/2SM BR BKN040=

USA.gov is the U.S. government's official web portal to all federal, state and local government web resources and services.